sensor_id;sensor_type;location;lat;lon;timestamp;temperature;humidity
40289;DHT22;28991;52.028;5.526;2023-08-20T00:00:14;23.80;68.30
40289;DHT22;28991;52.028;5.526;2023-08-20T00:02:43;23.90;68.40
40289;DHT22;28991;52.028;5.526;2023-08-20T00:05:11;23.90;68.40
40289;DHT22;28991;52.028;5.526;2023-08-20T00:07:37;23.90;68.40
40289;DHT22;28991;52.028;5.526;2023-08-20T00:10:03;23.90;68.40
40289;DHT22;28991;52.028;5.526;2023-08-20T00:12:30;23.80;68.40
40289;DHT22;28991;52.028;5.526;2023-08-20T00:15:00;23.80;68.40
40289;DHT22;28991;52.028;5.526;2023-08-20T00:17:37;23.80;68.40
40289;DHT22;28991;52.028;5.526;2023-08-20T00:20:05;23.80;68.40
40289;DHT22;28991;52.028;5.526;2023-08-20T00:22:49;23.90;68.40
40289;DHT22;28991;52.028;5.526;2023-08-20T00:25:16;23.80;68.40
40289;DHT22;28991;52.028;5.526;2023-08-20T00:27:42;23.80;68.40
40289;DHT22;28991;52.028;5.526;2023-08-20T00:30:09;23.80;68.40
40289;DHT22;28991;52.028;5.526;2023-08-20T00:32:35;23.80;68.40
40289;DHT22;28991;52.028;5.526;2023-08-20T00:35:01;23.80;68.40
40289;DHT22;28991;52.028;5.526;2023-08-20T00:37:30;23.80;68.40
40289;DHT22;28991;52.028;5.526;2023-08-20T00:39:56;23.80;68.40
40289;DHT22;28991;52.028;5.526;2023-08-20T00:42:23;23.90;68.50
40289;DHT22;28991;52.028;5.526;2023-08-20T00:44:54;23.80;68.40
40289;DHT22;28991;52.028;5.526;2023-08-20T00:47:20;23.80;68.40
40289;DHT22;28991;52.028;5.526;2023-08-20T00:49:46;23.80;68.40
40289;DHT22;28991;52.028;5.526;2023-08-20T00:52:14;23.80;68.40
40289;DHT22;28991;52.028;5.526;2023-08-20T00:54:40;23.80;68.40
40289;DHT22;28991;52.028;5.526;2023-08-20T00:57:07;23.80;68.40
40289;DHT22;28991;52.028;5.526;2023-08-20T00:59:33;23.80;68.40
40289;DHT22;28991;52.028;5.526;2023-08-20T01:02:00;23.80;68.40
40289;DHT22;28991;52.028;5.526;2023-08-20T01:04:27;23.80;68.40
40289;DHT22;28991;52.028;5.526;2023-08-20T01:07:19;23.80;68.40
40289;DHT22;28991;52.028;5.526;2023-08-20T01:12:34;23.80;68.50
40289;DHT22;28991;52.028;5.526;2023-08-20T01:15:00;23.80;68.50
40289;DHT22;28991;52.028;5.526;2023-08-20T01:17:26;23.80;68.50
40289;DHT22;28991;52.028;5.526;2023-08-20T01:19:51;23.80;68.40
40289;DHT22;28991;52.028;5.526;2023-08-20T01:30:01;23.80;68.50
40289;DHT22;28991;52.028;5.526;2023-08-20T01:32:28;23.90;68.50
40289;DHT22;28991;52.028;5.526;2023-08-20T01:34:54;23.80;68.50
40289;DHT22;28991;52.028;5.526;2023-08-20T01:37:20;23.80;68.50
40289;DHT22;28991;52.028;5.526;2023-08-20T01:39:46;23.80;68.50
40289;DHT22;28991;52.028;5.526;2023-08-20T01:42:11;23.80;68.50
40289;DHT22;28991;52.028;5.526;2023-08-20T01:44:37;23.70;68.40
40289;DHT22;28991;52.028;5.526;2023-08-20T01:47:03;23.80;68.50
40289;DHT22;28991;52.028;5.526;2023-08-20T01:49:28;23.70;68.40
40289;DHT22;28991;52.028;5.526;2023-08-20T01:51:54;23.70;68.40
40289;DHT22;28991;52.028;5.526;2023-08-20T01:54:19;23.70;68.50
40289;DHT22;28991;52.028;5.526;2023-08-20T01:56:45;23.80;68.50
40289;DHT22;28991;52.028;5.526;2023-08-20T01:59:11;23.80;68.50
40289;DHT22;28991;52.028;5.526;2023-08-20T02:01:38;23.80;68.50
40289;DHT22;28991;52.028;5.526;2023-08-20T02:04:03;23.70;68.50
40289;DHT22;28991;52.028;5.526;2023-08-20T02:06:29;23.70;68.50
40289;DHT22;28991;52.028;5.526;2023-08-20T02:08:54;23.70;68.50
40289;DHT22;28991;52.028;5.526;2023-08-20T02:11:20;23.70;68.50
40289;DHT22;28991;52.028;5.526;2023-08-20T02:13:46;23.70;68.50
40289;DHT22;28991;52.028;5.526;2023-08-20T02:16:11;23.70;68.50
40289;DHT22;28991;52.028;5.526;2023-08-20T02:18:37;23.70;68.50
40289;DHT22;28991;52.028;5.526;2023-08-20T02:21:03;23.70;68.50
40289;DHT22;28991;52.028;5.526;2023-08-20T02:23:28;23.70;68.50
40289;DHT22;28991;52.028;5.526;2023-08-20T02:25:54;23.70;68.50
40289;DHT22;28991;52.028;5.526;2023-08-20T02:28:19;23.70;68.50
40289;DHT22;28991;52.028;5.526;2023-08-20T02:30:46;23.70;68.50
40289;DHT22;28991;52.028;5.526;2023-08-20T02:33:12;23.70;68.50
40289;DHT22;28991;52.028;5.526;2023-08-20T02:35:38;23.70;68.50
40289;DHT22;28991;52.028;5.526;2023-08-20T02:38:05;23.70;68.50
40289;DHT22;28991;52.028;5.526;2023-08-20T02:40:31;23.70;68.50
40289;DHT22;28991;52.028;5.526;2023-08-20T02:42:56;23.70;68.50
40289;DHT22;28991;52.028;5.526;2023-08-20T02:45:22;23.70;68.50
40289;DHT22;28991;52.028;5.526;2023-08-20T02:47:48;23.70;68.50
40289;DHT22;28991;52.028;5.526;2023-08-20T02:50:14;23.70;68.50
40289;DHT22;28991;52.028;5.526;2023-08-20T02:52:44;23.70;68.50
40289;DHT22;28991;52.028;5.526;2023-08-20T02:55:10;23.70;68.50
40289;DHT22;28991;52.028;5.526;2023-08-20T02:57:35;23.70;68.50
40289;DHT22;28991;52.028;5.526;2023-08-20T03:00:01;23.70;68.50
40289;DHT22;28991;52.028;5.526;2023-08-20T03:02:27;23.70;68.50
40289;DHT22;28991;52.028;5.526;2023-08-20T03:04:53;23.70;68.50
40289;DHT22;28991;52.028;5.526;2023-08-20T03:07:19;23.70;68.50
40289;DHT22;28991;52.028;5.526;2023-08-20T03:09:44;23.70;68.50
40289;DHT22;28991;52.028;5.526;2023-08-20T03:12:10;23.70;68.50
40289;DHT22;28991;52.028;5.526;2023-08-20T03:14:36;23.70;68.50
40289;DHT22;28991;52.028;5.526;2023-08-20T03:17:01;23.70;68.50
40289;DHT22;28991;52.028;5.526;2023-08-20T03:19:32;23.70;68.60
40289;DHT22;28991;52.028;5.526;2023-08-20T03:21:58;23.70;68.60
40289;DHT22;28991;52.028;5.526;2023-08-20T03:24:24;23.70;68.50
40289;DHT22;28991;52.028;5.526;2023-08-20T03:26:49;23.70;68.60
40289;DHT22;28991;52.028;5.526;2023-08-20T03:29:15;23.60;68.50
40289;DHT22;28991;52.028;5.526;2023-08-20T03:31:40;23.70;68.60
40289;DHT22;28991;52.028;5.526;2023-08-20T03:34:06;23.70;68.60
40289;DHT22;28991;52.028;5.526;2023-08-20T03:36:34;23.70;68.60
40289;DHT22;28991;52.028;5.526;2023-08-20T03:38:59;23.70;68.60
40289;DHT22;28991;52.028;5.526;2023-08-20T03:41:25;23.60;68.50
40289;DHT22;28991;52.028;5.526;2023-08-20T03:43:50;23.70;68.60
40289;DHT22;28991;52.028;5.526;2023-08-20T03:46:16;23.70;68.60
40289;DHT22;28991;52.028;5.526;2023-08-20T03:48:42;23.70;68.60
40289;DHT22;28991;52.028;5.526;2023-08-20T03:51:07;23.70;68.60
40289;DHT22;28991;52.028;5.526;2023-08-20T03:53:33;23.70;68.60
40289;DHT22;28991;52.028;5.526;2023-08-20T03:55:58;23.70;68.60
40289;DHT22;28991;52.028;5.526;2023-08-20T03:58:24;23.60;68.50
40289;DHT22;28991;52.028;5.526;2023-08-20T04:00:50;23.60;68.50
40289;DHT22;28991;52.028;5.526;2023-08-20T04:03:15;23.60;68.50
40289;DHT22;28991;52.028;5.526;2023-08-20T04:05:44;23.60;68.50
40289;DHT22;28991;52.028;5.526;2023-08-20T04:08:10;23.60;68.50
40289;DHT22;28991;52.028;5.526;2023-08-20T04:10:41;23.60;68.50
40289;DHT22;28991;52.028;5.526;2023-08-20T04:13:07;23.60;68.50
40289;DHT22;28991;52.028;5.526;2023-08-20T04:15:32;23.60;68.50
40289;DHT22;28991;52.028;5.526;2023-08-20T04:17:58;23.60;68.50
40289;DHT22;28991;52.028;5.526;2023-08-20T04:20:24;23.70;68.60
40289;DHT22;28991;52.028;5.526;2023-08-20T04:22:49;23.60;68.50
40289;DHT22;28991;52.028;5.526;2023-08-20T04:25:15;23.60;68.50
40289;DHT22;28991;52.028;5.526;2023-08-20T04:27:41;23.60;68.60
40289;DHT22;28991;52.028;5.526;2023-08-20T04:30:07;23.60;68.50
40289;DHT22;28991;52.028;5.526;2023-08-20T04:32:32;23.60;68.60
40289;DHT22;28991;52.028;5.526;2023-08-20T04:34:58;23.60;68.60
40289;DHT22;28991;52.028;5.526;2023-08-20T04:37:24;23.60;68.60
40289;DHT22;28991;52.028;5.526;2023-08-20T04:39:50;23.60;68.60
40289;DHT22;28991;52.028;5.526;2023-08-20T04:42:16;23.60;68.60
40289;DHT22;28991;52.028;5.526;2023-08-20T04:44:41;23.60;68.50
40289;DHT22;28991;52.028;5.526;2023-08-20T04:47:11;23.60;68.50
40289;DHT22;28991;52.028;5.526;2023-08-20T04:49:37;23.60;68.60
40289;DHT22;28991;52.028;5.526;2023-08-20T04:52:03;23.60;68.60
40289;DHT22;28991;52.028;5.526;2023-08-20T04:54:28;23.60;68.50
40289;DHT22;28991;52.028;5.526;2023-08-20T04:56:54;23.60;68.50
40289;DHT22;28991;52.028;5.526;2023-08-20T04:59:20;23.60;68.50
40289;DHT22;28991;52.028;5.526;2023-08-20T05:01:45;23.60;68.60
40289;DHT22;28991;52.028;5.526;2023-08-20T05:04:11;23.50;68.50
40289;DHT22;28991;52.028;5.526;2023-08-20T05:06:37;23.60;68.50
40289;DHT22;28991;52.028;5.526;2023-08-20T05:09:03;23.60;68.50
40289;DHT22;28991;52.028;5.526;2023-08-20T05:11:29;23.60;68.50
40289;DHT22;28991;52.028;5.526;2023-08-20T05:13:56;23.60;68.50
40289;DHT22;28991;52.028;5.526;2023-08-20T05:16:22;23.70;68.50
40289;DHT22;28991;52.028;5.526;2023-08-20T05:18:48;23.60;68.40
40289;DHT22;28991;52.028;5.526;2023-08-20T05:21:14;23.70;68.40
40289;DHT22;28991;52.028;5.526;2023-08-20T05:23:40;23.70;68.40
40289;DHT22;28991;52.028;5.526;2023-08-20T05:26:06;23.70;68.30
40289;DHT22;28991;52.028;5.526;2023-08-20T05:28:33;23.70;68.30
40289;DHT22;28991;52.028;5.526;2023-08-20T05:30:58;23.70;68.30
40289;DHT22;28991;52.028;5.526;2023-08-20T05:33:24;23.80;68.30
40289;DHT22;28991;52.028;5.526;2023-08-20T05:35:50;23.70;68.20
40289;DHT22;28991;52.028;5.526;2023-08-20T05:38:16;23.70;68.20
40289;DHT22;28991;52.028;5.526;2023-08-20T05:40:42;23.70;68.20
40289;DHT22;28991;52.028;5.526;2023-08-20T05:43:07;23.70;68.20
40289;DHT22;28991;52.028;5.526;2023-08-20T05:45:33;23.70;68.20
40289;DHT22;28991;52.028;5.526;2023-08-20T05:47:59;23.70;68.20
40289;DHT22;28991;52.028;5.526;2023-08-20T05:50:25;23.70;68.20
40289;DHT22;28991;52.028;5.526;2023-08-20T05:52:50;23.80;68.30
40289;DHT22;28991;52.028;5.526;2023-08-20T05:55:16;23.80;68.30
40289;DHT22;28991;52.028;5.526;2023-08-20T05:57:42;23.70;68.20
40289;DHT22;28991;52.028;5.526;2023-08-20T06:00:11;23.70;68.20
40289;DHT22;28991;52.028;5.526;2023-08-20T06:02:37;23.70;68.20
40289;DHT22;28991;52.028;5.526;2023-08-20T06:05:03;23.70;68.20
40289;DHT22;28991;52.028;5.526;2023-08-20T06:07:32;23.70;68.20
40289;DHT22;28991;52.028;5.526;2023-08-20T06:09:57;23.70;68.20
40289;DHT22;28991;52.028;5.526;2023-08-20T06:12:23;23.70;68.20
40289;DHT22;28991;52.028;5.526;2023-08-20T06:14:49;23.70;68.20
40289;DHT22;28991;52.028;5.526;2023-08-20T06:17:15;23.70;68.10
40289;DHT22;28991;52.028;5.526;2023-08-20T06:19:41;24.00;68.30
40289;DHT22;28991;52.028;5.526;2023-08-20T06:22:07;23.70;68.10
40289;DHT22;28991;52.028;5.526;2023-08-20T06:24:32;23.70;68.10
40289;DHT22;28991;52.028;5.526;2023-08-20T06:26:58;23.80;68.10
40289;DHT22;28991;52.028;5.526;2023-08-20T06:29:23;23.80;68.20
40289;DHT22;28991;52.028;5.526;2023-08-20T06:31:49;23.70;68.10
40289;DHT22;28991;52.028;5.526;2023-08-20T06:34:16;23.70;68.10
40289;DHT22;28991;52.028;5.526;2023-08-20T06:36:41;23.80;68.10
40289;DHT22;28991;52.028;5.526;2023-08-20T06:39:07;23.70;68.00
40289;DHT22;28991;52.028;5.526;2023-08-20T06:41:33;23.80;68.00
40289;DHT22;28991;52.028;5.526;2023-08-20T06:43:58;23.70;67.80
40289;DHT22;28991;52.028;5.526;2023-08-20T06:46:24;23.80;67.60
40289;DHT22;28991;52.028;5.526;2023-08-20T06:48:50;23.80;67.50
40289;DHT22;28991;52.028;5.526;2023-08-20T06:51:19;23.70;67.30
40289;DHT22;28991;52.028;5.526;2023-08-20T06:53:45;23.70;67.00
40289;DHT22;28991;52.028;5.526;2023-08-20T06:56:11;23.70;67.00
40289;DHT22;28991;52.028;5.526;2023-08-20T06:58:38;23.70;66.90
40289;DHT22;28991;52.028;5.526;2023-08-20T07:01:04;23.70;66.80
40289;DHT22;28991;52.028;5.526;2023-08-20T07:03:34;23.70;66.80
40289;DHT22;28991;52.028;5.526;2023-08-20T07:06:00;23.70;66.80
40289;DHT22;28991;52.028;5.526;2023-08-20T07:08:26;23.60;66.80
40289;DHT22;28991;52.028;5.526;2023-08-20T07:10:51;23.70;66.80
40289;DHT22;28991;52.028;5.526;2023-08-20T07:13:17;23.70;66.80
40289;DHT22;28991;52.028;5.526;2023-08-20T07:15:42;23.60;66.80
40289;DHT22;28991;52.028;5.526;2023-08-20T07:18:08;23.60;66.70
40289;DHT22;28991;52.028;5.526;2023-08-20T07:20:33;23.60;66.70
40289;DHT22;28991;52.028;5.526;2023-08-20T07:22:59;23.60;66.60
40289;DHT22;28991;52.028;5.526;2023-08-20T07:25:25;23.70;66.90
40289;DHT22;28991;52.028;5.526;2023-08-20T07:27:50;23.80;66.80
40289;DHT22;28991;52.028;5.526;2023-08-20T07:30:16;23.70;66.70
40289;DHT22;28991;52.028;5.526;2023-08-20T07:32:42;23.60;66.60
40289;DHT22;28991;52.028;5.526;2023-08-20T07:35:07;23.60;66.60
40289;DHT22;28991;52.028;5.526;2023-08-20T07:37:34;23.70;66.60
40289;DHT22;28991;52.028;5.526;2023-08-20T07:39:59;23.60;66.50
40289;DHT22;28991;52.028;5.526;2023-08-20T07:42:25;23.70;66.50
40289;DHT22;28991;52.028;5.526;2023-08-20T07:44:50;23.90;66.60
40289;DHT22;28991;52.028;5.526;2023-08-20T07:47:16;23.70;66.50
40289;DHT22;28991;52.028;5.526;2023-08-20T07:49:41;23.70;66.40
40289;DHT22;28991;52.028;5.526;2023-08-20T07:52:10;23.70;66.30
40289;DHT22;28991;52.028;5.526;2023-08-20T07:54:35;23.70;66.30
40289;DHT22;28991;52.028;5.526;2023-08-20T07:57:02;23.70;66.20
40289;DHT22;28991;52.028;5.526;2023-08-20T07:59:28;23.70;66.10
40289;DHT22;28991;52.028;5.526;2023-08-20T08:01:53;23.70;66.00
40289;DHT22;28991;52.028;5.526;2023-08-20T08:04:19;23.70;65.90
40289;DHT22;28991;52.028;5.526;2023-08-20T08:06:45;23.70;65.80
40289;DHT22;28991;52.028;5.526;2023-08-20T08:09:28;23.70;65.70
40289;DHT22;28991;52.028;5.526;2023-08-20T08:11:54;23.80;65.50
40289;DHT22;28991;52.028;5.526;2023-08-20T08:14:19;23.80;65.50
40289;DHT22;28991;52.028;5.526;2023-08-20T08:16:46;23.80;65.40
40289;DHT22;28991;52.028;5.526;2023-08-20T08:19:12;23.80;65.30
40289;DHT22;28991;52.028;5.526;2023-08-20T08:21:38;24.00;65.30
40289;DHT22;28991;52.028;5.526;2023-08-20T08:24:04;23.80;65.10
40289;DHT22;28991;52.028;5.526;2023-08-20T08:26:30;23.80;64.80
40289;DHT22;28991;52.028;5.526;2023-08-20T08:28:56;23.80;65.00
40289;DHT22;28991;52.028;5.526;2023-08-20T08:31:23;23.70;64.70
40289;DHT22;28991;52.028;5.526;2023-08-20T08:33:48;23.90;64.70
40289;DHT22;28991;52.028;5.526;2023-08-20T08:36:14;23.90;64.70
40289;DHT22;28991;52.028;5.526;2023-08-20T08:38:42;23.90;64.50
40289;DHT22;28991;52.028;5.526;2023-08-20T08:41:11;23.90;64.40
40289;DHT22;28991;52.028;5.526;2023-08-20T08:43:40;23.90;64.20
40289;DHT22;28991;52.028;5.526;2023-08-20T08:46:13;23.90;64.20
40289;DHT22;28991;52.028;5.526;2023-08-20T08:48:43;23.90;63.80
40289;DHT22;28991;52.028;5.526;2023-08-20T08:51:09;24.00;64.00
40289;DHT22;28991;52.028;5.526;2023-08-20T08:53:35;24.10;63.70
40289;DHT22;28991;52.028;5.526;2023-08-20T08:56:02;24.00;63.60
40289;DHT22;28991;52.028;5.526;2023-08-20T08:58:28;24.00;63.40
40289;DHT22;28991;52.028;5.526;2023-08-20T09:00:54;24.00;63.50
40289;DHT22;28991;52.028;5.526;2023-08-20T09:03:20;24.10;63.50
40289;DHT22;28991;52.028;5.526;2023-08-20T09:05:58;24.00;63.40
40289;DHT22;28991;52.028;5.526;2023-08-20T09:08:30;24.10;63.20
40289;DHT22;28991;52.028;5.526;2023-08-20T09:10:57;24.10;63.20
40289;DHT22;28991;52.028;5.526;2023-08-20T09:13:38;24.10;63.10
40289;DHT22;28991;52.028;5.526;2023-08-20T09:16:05;24.10;63.00
40289;DHT22;28991;52.028;5.526;2023-08-20T09:18:32;24.20;63.00
40289;DHT22;28991;52.028;5.526;2023-08-20T09:20:58;24.20;62.90
40289;DHT22;28991;52.028;5.526;2023-08-20T09:23:28;24.20;62.70
40289;DHT22;28991;52.028;5.526;2023-08-20T09:25:54;24.20;62.70
40289;DHT22;28991;52.028;5.526;2023-08-20T09:28:19;24.20;62.50
40289;DHT22;28991;52.028;5.526;2023-08-20T09:30:58;24.30;62.40
40289;DHT22;28991;52.028;5.526;2023-08-20T09:33:27;24.20;62.30
40289;DHT22;28991;52.028;5.526;2023-08-20T09:35:53;24.30;62.30
40289;DHT22;28991;52.028;5.526;2023-08-20T09:38:23;24.30;62.00
40289;DHT22;28991;52.028;5.526;2023-08-20T09:40:50;24.50;61.90
40289;DHT22;28991;52.028;5.526;2023-08-20T09:43:18;24.30;61.90
40289;DHT22;28991;52.028;5.526;2023-08-20T09:45:43;24.40;61.70
40289;DHT22;28991;52.028;5.526;2023-08-20T09:48:15;24.40;61.70
40289;DHT22;28991;52.028;5.526;2023-08-20T09:50:43;24.40;61.50
40289;DHT22;28991;52.028;5.526;2023-08-20T09:53:26;24.40;61.50
40289;DHT22;28991;52.028;5.526;2023-08-20T09:55:52;24.40;61.30
40289;DHT22;28991;52.028;5.526;2023-08-20T09:58:20;24.40;61.40
40289;DHT22;28991;52.028;5.526;2023-08-20T10:00:51;24.40;61.30
40289;DHT22;28991;52.028;5.526;2023-08-20T10:03:18;24.40;61.10
40289;DHT22;28991;52.028;5.526;2023-08-20T10:05:47;24.50;61.40
40289;DHT22;28991;52.028;5.526;2023-08-20T10:08:14;24.50;61.00
40289;DHT22;28991;52.028;5.526;2023-08-20T10:10:40;24.50;61.40
40289;DHT22;28991;52.028;5.526;2023-08-20T10:13:06;24.50;61.00
40289;DHT22;28991;52.028;5.526;2023-08-20T10:15:32;24.60;60.90
40289;DHT22;28991;52.028;5.526;2023-08-20T10:18:00;24.60;60.80
40289;DHT22;28991;52.028;5.526;2023-08-20T10:20:29;24.60;60.70
40289;DHT22;28991;52.028;5.526;2023-08-20T10:23:00;24.60;60.60
40289;DHT22;28991;52.028;5.526;2023-08-20T10:25:27;24.60;60.50
40289;DHT22;28991;52.028;5.526;2023-08-20T10:27:54;24.60;60.20
40289;DHT22;28991;52.028;5.526;2023-08-20T10:30:24;24.60;60.20
40289;DHT22;28991;52.028;5.526;2023-08-20T10:32:51;24.70;59.90
40289;DHT22;28991;52.028;5.526;2023-08-20T10:35:27;24.70;60.00
40289;DHT22;28991;52.028;5.526;2023-08-20T10:38:19;24.60;60.00
40289;DHT22;28991;52.028;5.526;2023-08-20T10:43:40;24.70;59.60
40289;DHT22;28991;52.028;5.526;2023-08-20T10:46:06;24.70;59.70
40289;DHT22;28991;52.028;5.526;2023-08-20T10:48:33;24.70;59.70
40289;DHT22;28991;52.028;5.526;2023-08-20T10:51:14;24.70;59.40
40289;DHT22;28991;52.028;5.526;2023-08-20T10:53:41;24.70;59.00
40289;DHT22;28991;52.028;5.526;2023-08-20T10:56:20;24.70;59.30
40289;DHT22;28991;52.028;5.526;2023-08-20T10:58:46;24.70;59.00
40289;DHT22;28991;52.028;5.526;2023-08-20T11:01:21;24.70;58.90
40289;DHT22;28991;52.028;5.526;2023-08-20T11:03:50;24.80;58.90
40289;DHT22;28991;52.028;5.526;2023-08-20T11:06:17;24.70;59.00
40289;DHT22;28991;52.028;5.526;2023-08-20T11:08:43;24.70;59.00
40289;DHT22;28991;52.028;5.526;2023-08-20T11:11:10;24.70;59.00
40289;DHT22;28991;52.028;5.526;2023-08-20T11:13:36;24.70;58.90
40289;DHT22;28991;52.028;5.526;2023-08-20T11:16:03;24.70;59.00
40289;DHT22;28991;52.028;5.526;2023-08-20T11:18:30;24.70;59.00
40289;DHT22;28991;52.028;5.526;2023-08-20T11:20:56;24.70;59.00
40289;DHT22;28991;52.028;5.526;2023-08-20T11:23:22;24.70;59.10
40289;DHT22;28991;52.028;5.526;2023-08-20T11:25:48;24.60;59.00
40289;DHT22;28991;52.028;5.526;2023-08-20T11:28:13;24.60;59.10
40289;DHT22;28991;52.028;5.526;2023-08-20T11:30:39;24.60;59.20
40289;DHT22;28991;52.028;5.526;2023-08-20T11:33:05;24.70;59.30
40289;DHT22;28991;52.028;5.526;2023-08-20T11:35:31;24.60;59.20
40289;DHT22;28991;52.028;5.526;2023-08-20T11:37:58;24.60;59.30
40289;DHT22;28991;52.028;5.526;2023-08-20T11:40:23;24.60;59.30
40289;DHT22;28991;52.028;5.526;2023-08-20T11:42:49;24.60;59.40
40289;DHT22;28991;52.028;5.526;2023-08-20T11:45:15;24.60;59.40
40289;DHT22;28991;52.028;5.526;2023-08-20T11:47:42;24.60;59.40
40289;DHT22;28991;52.028;5.526;2023-08-20T11:50:08;24.60;59.50
40289;DHT22;28991;52.028;5.526;2023-08-20T11:52:35;24.60;59.50
40289;DHT22;28991;52.028;5.526;2023-08-20T11:55:01;24.60;59.60
40289;DHT22;28991;52.028;5.526;2023-08-20T11:57:29;24.60;59.60
40289;DHT22;28991;52.028;5.526;2023-08-20T11:59:55;24.60;59.60
40289;DHT22;28991;52.028;5.526;2023-08-20T12:02:27;24.60;59.70
40289;DHT22;28991;52.028;5.526;2023-08-20T12:04:56;24.60;59.70
40289;DHT22;28991;52.028;5.526;2023-08-20T12:07:25;24.60;59.80
40289;DHT22;28991;52.028;5.526;2023-08-20T12:09:53;24.60;59.90
40289;DHT22;28991;52.028;5.526;2023-08-20T12:12:19;24.60;59.80
40289;DHT22;28991;52.028;5.526;2023-08-20T12:14:48;24.60;59.90
40289;DHT22;28991;52.028;5.526;2023-08-20T12:17:17;24.60;59.90
40289;DHT22;28991;52.028;5.526;2023-08-20T12:19:44;24.60;59.90
40289;DHT22;28991;52.028;5.526;2023-08-20T12:22:09;24.60;60.00
40289;DHT22;28991;52.028;5.526;2023-08-20T12:24:35;24.60;60.00
40289;DHT22;28991;52.028;5.526;2023-08-20T12:27:01;24.60;60.00
40289;DHT22;28991;52.028;5.526;2023-08-20T12:29:28;24.60;60.10
40289;DHT22;28991;52.028;5.526;2023-08-20T12:31:53;24.60;60.10
40289;DHT22;28991;52.028;5.526;2023-08-20T12:34:19;24.60;60.10
40289;DHT22;28991;52.028;5.526;2023-08-20T12:36:47;24.60;60.10
40289;DHT22;28991;52.028;5.526;2023-08-20T12:39:12;24.60;60.20
40289;DHT22;28991;52.028;5.526;2023-08-20T12:41:39;24.60;60.20
40289;DHT22;28991;52.028;5.526;2023-08-20T12:44:05;24.60;60.30
40289;DHT22;28991;52.028;5.526;2023-08-20T12:46:30;24.60;60.30
40289;DHT22;28991;52.028;5.526;2023-08-20T12:48:56;24.60;60.40
40289;DHT22;28991;52.028;5.526;2023-08-20T12:51:22;24.60;60.40
40289;DHT22;28991;52.028;5.526;2023-08-20T12:53:48;24.60;60.40
40289;DHT22;28991;52.028;5.526;2023-08-20T12:56:14;24.50;60.40
40289;DHT22;28991;52.028;5.526;2023-08-20T12:58:41;24.60;60.50
40289;DHT22;28991;52.028;5.526;2023-08-20T13:01:06;24.60;60.50
40289;DHT22;28991;52.028;5.526;2023-08-20T13:03:32;24.60;60.50
40289;DHT22;28991;52.028;5.526;2023-08-20T13:05:58;24.60;60.60
40289;DHT22;28991;52.028;5.526;2023-08-20T13:08:25;24.60;60.60
40289;DHT22;28991;52.028;5.526;2023-08-20T13:10:54;24.60;60.60
40289;DHT22;28991;52.028;5.526;2023-08-20T13:13:23;24.60;60.60
40289;DHT22;28991;52.028;5.526;2023-08-20T13:15:51;24.60;60.60
40289;DHT22;28991;52.028;5.526;2023-08-20T13:18:17;24.70;60.70
40289;DHT22;28991;52.028;5.526;2023-08-20T13:20:43;24.70;61.30
40289;DHT22;28991;52.028;5.526;2023-08-20T13:23:09;24.70;60.70
40289;DHT22;28991;52.028;5.526;2023-08-20T13:25:35;24.70;60.70
40289;DHT22;28991;52.028;5.526;2023-08-20T13:28:00;24.70;60.70
40289;DHT22;28991;52.028;5.526;2023-08-20T13:30:26;24.70;60.70
40289;DHT22;28991;52.028;5.526;2023-08-20T13:32:52;24.60;60.70
40289;DHT22;28991;52.028;5.526;2023-08-20T13:35:17;24.70;60.80
40289;DHT22;28991;52.028;5.526;2023-08-20T13:37:43;24.70;60.80
40289;DHT22;28991;52.028;5.526;2023-08-20T13:40:10;24.70;60.80
40289;DHT22;28991;52.028;5.526;2023-08-20T13:42:36;24.70;60.80
40289;DHT22;28991;52.028;5.526;2023-08-20T13:45:02;24.70;60.80
40289;DHT22;28991;52.028;5.526;2023-08-20T13:47:28;24.70;60.80
40289;DHT22;28991;52.028;5.526;2023-08-20T13:49:53;24.80;60.90
40289;DHT22;28991;52.028;5.526;2023-08-20T13:52:19;24.70;60.80
40289;DHT22;28991;52.028;5.526;2023-08-20T13:54:45;24.70;60.90
40289;DHT22;28991;52.028;5.526;2023-08-20T13:57:11;24.70;60.90
40289;DHT22;28991;52.028;5.526;2023-08-20T13:59:36;24.70;60.90
40289;DHT22;28991;52.028;5.526;2023-08-20T14:02:02;24.70;60.90
40289;DHT22;28991;52.028;5.526;2023-08-20T14:04:28;24.70;60.90
40289;DHT22;28991;52.028;5.526;2023-08-20T14:06:53;24.70;61.00
40289;DHT22;28991;52.028;5.526;2023-08-20T14:09:19;24.70;60.90
40289;DHT22;28991;52.028;5.526;2023-08-20T14:11:46;24.70;60.90
40289;DHT22;28991;52.028;5.526;2023-08-20T14:14:11;24.70;60.90
40289;DHT22;28991;52.028;5.526;2023-08-20T14:16:37;24.70;61.00
40289;DHT22;28991;52.028;5.526;2023-08-20T14:19:03;24.70;61.00
40289;DHT22;28991;52.028;5.526;2023-08-20T14:21:28;24.70;61.00
40289;DHT22;28991;52.028;5.526;2023-08-20T14:23:54;24.70;61.00
40289;DHT22;28991;52.028;5.526;2023-08-20T14:26:20;24.80;61.10
40289;DHT22;28991;52.028;5.526;2023-08-20T14:28:45;24.70;61.00
40289;DHT22;28991;52.028;5.526;2023-08-20T14:31:11;24.70;61.00
40289;DHT22;28991;52.028;5.526;2023-08-20T14:33:37;24.70;61.00
40289;DHT22;28991;52.028;5.526;2023-08-20T14:36:02;24.70;61.00
40289;DHT22;28991;52.028;5.526;2023-08-20T14:38:29;24.70;61.00
40289;DHT22;28991;52.028;5.526;2023-08-20T14:41:02;24.70;61.00
40289;DHT22;28991;52.028;5.526;2023-08-20T14:43:28;24.70;61.00
40289;DHT22;28991;52.028;5.526;2023-08-20T14:45:54;24.70;61.10
40289;DHT22;28991;52.028;5.526;2023-08-20T14:48:21;24.80;61.20
40289;DHT22;28991;52.028;5.526;2023-08-20T14:50:47;24.80;61.10
40289;DHT22;28991;52.028;5.526;2023-08-20T14:53:13;24.70;61.10
40289;DHT22;28991;52.028;5.526;2023-08-20T14:55:39;24.70;61.10
40289;DHT22;28991;52.028;5.526;2023-08-20T14:58:04;24.70;61.10
40289;DHT22;28991;52.028;5.526;2023-08-20T15:00:33;24.80;61.20
40289;DHT22;28991;52.028;5.526;2023-08-20T15:02:59;24.80;61.20
40289;DHT22;28991;52.028;5.526;2023-08-20T15:05:25;24.80;61.20
40289;DHT22;28991;52.028;5.526;2023-08-20T15:07:51;24.70;61.20
40289;DHT22;28991;52.028;5.526;2023-08-20T15:10:17;24.80;61.20
40289;DHT22;28991;52.028;5.526;2023-08-20T15:12:43;24.70;61.20
40289;DHT22;28991;52.028;5.526;2023-08-20T15:15:09;24.80;61.20
40289;DHT22;28991;52.028;5.526;2023-08-20T15:17:35;24.80;61.20
40289;DHT22;28991;52.028;5.526;2023-08-20T15:20:01;24.80;61.20
40289;DHT22;28991;52.028;5.526;2023-08-20T15:22:29;24.80;61.30
40289;DHT22;28991;52.028;5.526;2023-08-20T15:24:54;24.80;61.30
40289;DHT22;28991;52.028;5.526;2023-08-20T15:27:21;24.80;61.30
40289;DHT22;28991;52.028;5.526;2023-08-20T15:29:47;24.80;61.30
40289;DHT22;28991;52.028;5.526;2023-08-20T15:32:13;24.80;61.30
40289;DHT22;28991;52.028;5.526;2023-08-20T15:34:38;24.80;61.30
40289;DHT22;28991;52.028;5.526;2023-08-20T15:37:04;24.80;61.30
40289;DHT22;28991;52.028;5.526;2023-08-20T15:39:32;24.80;61.30